Time,TemperatureF,DewpointF,PressureIn,WindDirection,WindDirectionDegrees,WindSpeedMPH,WindSpeedGustMPH,Humidity,HourlyPrecipIn,Conditions,Clouds,dailyrainin,SoftwareType,DateUTC
2013-07-13 00:00:00,74.2,57.7,29.97,SSW,203,0.4,0.4,56,0.00,,,0.00,WUHU216HW,2013-07-13 05:00:00,
2013-07-13 00:05:00,74.2,57.7,29.97,SSW,203,0.4,0.4,56,0.00,,,0.00,WUHU216HW,2013-07-13 05:05:00,
2013-07-13 00:30:00,73.7,57.2,29.98,SSW,203,2.5,2.5,56,0.00,,,0.00,WUHU216HW,2013-07-13 05:30:00,
2013-07-13 00:35:00,73.7,57.2,29.98,SSW,203,2.5,2.5,56,0.00,,,0.00,WUHU216HW,2013-07-13 05:35:00,
2013-07-13 01:00:00,73.0,56.5,29.98,SSE,158,1.1,1.1,56,0.00,,,0.00,WUHU216HW,2013-07-13 06:00:00,
2013-07-13 01:05:00,73.0,56.5,29.98,SSE,158,1.1,1.1,56,0.00,,,0.00,WUHU216HW,2013-07-13 06:05:00,
2013-07-13 01:30:00,72.6,56.7,29.98,SSE,158,1.8,1.8,57,0.00,,,0.00,WUHU216HW,2013-07-13 06:30:00,
2013-07-13 01:35:00,72.6,56.7,29.98,SSE,158,1.8,1.8,57,0.00,,,0.00,WUHU216HW,2013-07-13 06:35:00,
2013-07-13 01:59:00,72.1,56.2,29.99,South,180,4.7,4.7,57,0.00,,,0.00,WUHU216HW,2013-07-13 06:59:00,
2013-07-13 02:00:00,72.1,56.2,29.99,South,180,4.7,4.7,57,0.00,,,0.00,WUHU216HW,2013-07-13 07:00:00,
2013-07-13 02:05:00,72.1,56.2,29.99,South,180,4.7,4.7,57,0.00,,,0.00,WUHU216HW,2013-07-13 07:05:00,
2013-07-13 02:30:00,71.7,55.8,29.99,SSE,158,1.8,1.8,57,0.00,,,0.00,WUHU216HW,2013-07-13 07:30:00,
2013-07-13 02:35:00,71.7,55.8,29.99,SSE,158,1.8,1.8,57,0.00,,,0.00,WUHU216HW,2013-07-13 07:35:00,
2013-07-13 02:59:00,71.3,55.9,29.99,SSE,158,2.0,2.0,58,0.00,,,0.00,WUHU216HW,2013-07-13 07:59:00,
2013-07-13 03:00:00,71.3,55.9,29.99,SSE,158,2.0,2.0,58,0.00,,,0.00,WUHU216HW,2013-07-13 08:00:00,
2013-07-13 03:05:00,71.3,55.9,29.99,SSE,158,2.0,2.0,58,0.00,,,0.00,WUHU216HW,2013-07-13 08:05:00,
2013-07-13 03:30:00,71.0,56.1,29.99,South,180,0.4,0.4,59,0.00,,,0.00,WUHU216HW,2013-07-13 08:30:00,
2013-07-13 03:35:00,71.0,56.1,29.99,South,180,0.4,0.4,59,0.00,,,0.00,WUHU216HW,2013-07-13 08:35:00,
2013-07-13 03:59:00,70.3,55.9,29.99,SE,135,2.0,2.0,60,0.00,,,0.00,WUHU216HW,2013-07-13 08:59:00,
2013-07-13 04:00:00,70.3,55.9,29.99,SE,135,2.0,2.0,60,0.00,,,0.00,WUHU216HW,2013-07-13 09:00:00,
2013-07-13 04:05:00,70.3,55.9,29.99,SE,135,2.0,2.0,60,0.00,,,0.00,WUHU216HW,2013-07-13 09:05:00,
2013-07-13 04:30:00,69.9,55.6,29.98,SSW,203,2.2,2.2,60,0.00,,,0.00,WUHU216HW,2013-07-13 09:30:00,
2013-07-13 04:35:00,69.9,55.6,29.98,SSW,203,2.2,2.2,60,0.00,,,0.00,WUHU216HW,2013-07-13 09:35:00,
2013-07-13 04:59:00,69.7,55.4,29.98,SSE,158,1.3,1.3,60,0.00,,,0.00,WUHU216HW,2013-07-13 09:59:00,
2013-07-13 05:00:00,69.7,55.4,29.98,SSE,158,1.3,1.3,60,0.00,,,0.00,WUHU216HW,2013-07-13 10:00:00,
2013-07-13 05:05:00,69.7,55.4,29.98,SSE,158,1.3,1.3,60,0.00,,,0.00,WUHU216HW,2013-07-13 10:05:00,
2013-07-13 05:30:00,69.2,54.9,29.99,SSE,158,1.3,1.3,60,0.00,,,0.00,WUHU216HW,2013-07-13 10:30:00,
2013-07-13 05:35:00,69.2,54.9,29.99,SSE,158,1.3,1.3,60,0.00,,,0.00,WUHU216HW,2013-07-13 10:35:00,
2013-07-13 05:59:00,68.6,54.8,29.99,South,180,2.5,2.5,61,0.00,,,0.00,WUHU216HW,2013-07-13 10:59:00,
2013-07-13 06:00:00,68.6,54.8,29.99,South,180,2.5,2.5,61,0.00,,,0.00,WUHU216HW,2013-07-13 11:00:00,
2013-07-13 06:05:00,68.6,54.8,29.99,South,180,2.5,2.5,61,0.00,,,0.00,WUHU216HW,2013-07-13 11:05:00,
2013-07-13 06:29:00,68.5,55.1,29.99,SE,135,3.4,3.4,62,0.00,,,0.00,WUHU216HW,2013-07-13 11:29:00,
2013-07-13 06:30:00,68.5,55.1,29.99,SE,135,3.4,3.4,62,0.00,,,0.00,WUHU216HW,2013-07-13 11:30:00,
2013-07-13 06:35:00,68.5,55.1,29.99,SE,135,3.4,3.4,62,0.00,,,0.00,WUHU216HW,2013-07-13 11:35:00,
2013-07-13 06:59:00,68.6,55.2,30.00,SE,135,3.6,3.6,62,0.00,,,0.00,WUHU216HW,2013-07-13 11:59:00,
2013-07-13 07:00:00,68.6,55.2,30.00,SE,135,3.6,3.6,62,0.00,,,0.00,WUHU216HW,2013-07-13 12:00:00,
2013-07-13 07:05:00,68.6,55.2,30.00,SE,135,3.6,3.6,62,0.00,,,0.00,WUHU216HW,2013-07-13 12:05:00,
2013-07-13 07:30:00,69.4,56.0,30.00,South,180,4.0,4.0,62,0.00,,,0.00,WUHU216HW,2013-07-13 12:30:00,
2013-07-13 07:35:00,69.4,56.0,30.00,South,180,4.0,4.0,62,0.00,,,0.00,WUHU216HW,2013-07-13 12:35:00,
2013-07-13 07:59:00,70.3,56.9,30.01,South,180,5.4,5.4,62,0.00,,,0.00,WUHU216HW,2013-07-13 12:59:00,
2013-07-13 08:00:00,70.3,56.9,30.01,South,180,5.4,5.4,62,0.00,,,0.00,WUHU216HW,2013-07-13 13:00:00,
2013-07-13 08:05:00,70.3,56.9,30.01,South,180,5.4,5.4,62,0.00,,,0.00,WUHU216HW,2013-07-13 13:05:00,
2013-07-13 08:30:00,72.1,58.1,30.01,SW,225,3.4,3.4,61,0.00,,,0.00,WUHU216HW,2013-07-13 13:30:00,
2013-07-13 08:35:00,72.1,58.1,30.01,SW,225,3.4,3.4,61,0.00,,,0.00,WUHU216HW,2013-07-13 13:35:00,
2013-07-13 08:59:00,73.9,59.3,30.01,SSW,203,3.4,3.4,60,0.00,,,0.00,WUHU216HW,2013-07-13 13:59:00,
2013-07-13 09:00:00,73.9,59.3,30.01,SSW,203,3.4,3.4,60,0.00,,,0.00,WUHU216HW,2013-07-13 14:00:00,
2013-07-13 09:05:00,73.9,59.3,30.01,SSW,203,3.4,3.4,60,0.00,,,0.00,WUHU216HW,2013-07-13 14:05:00,
2013-07-13 09:30:00,76.6,61.4,30.01,SSE,158,2.7,2.7,59,0.00,,,0.00,WUHU216HW,2013-07-13 14:30:00,
2013-07-13 09:35:00,76.6,61.4,30.01,SSE,158,2.7,2.7,59,0.00,,,0.00,WUHU216HW,2013-07-13 14:35:00,
2013-07-13 09:59:00,79.3,63.0,30.01,SSE,158,4.9,4.9,57,0.00,,,0.00,WUHU216HW,2013-07-13 14:59:00,
2013-07-13 10:00:00,79.3,63.0,30.01,SSE,158,4.9,4.9,57,0.00,,,0.00,WUHU216HW,2013-07-13 15:00:00,
2013-07-13 10:05:00,79.3,63.0,30.01,SSE,158,4.9,4.9,57,0.00,,,0.00,WUHU216HW,2013-07-13 15:05:00,
2013-07-13 10:30:00,81.2,64.2,30.01,SW,225,1.1,1.1,56,0.00,,,0.00,WUHU216HW,2013-07-13 15:30:00,
2013-07-13 10:35:00,81.2,64.2,30.01,SW,225,1.1,1.1,56,0.00,,,0.00,WUHU216HW,2013-07-13 15:35:00,
2013-07-13 10:59:00,83.9,66.2,30.01,South,180,4.7,4.7,55,0.00,,,0.00,WUHU216HW,2013-07-13 15:59:00,
2013-07-13 11:00:00,83.9,66.2,30.01,South,180,4.7,4.7,55,0.00,,,0.00,WUHU216HW,2013-07-13 16:00:00,
2013-07-13 11:05:00,83.9,66.2,30.01,South,180,4.7,4.7,55,0.00,,,0.00,WUHU216HW,2013-07-13 16:05:00,
2013-07-13 11:30:00,85.9,66.4,30.01,ENE,68,2.5,2.5,52,0.00,,,0.00,WUHU216HW,2013-07-13 16:30:00,
2013-07-13 11:35:00,85.9,66.4,30.01,ENE,68,2.5,2.5,52,0.00,,,0.00,WUHU216HW,2013-07-13 16:35:00,
2013-07-13 11:59:00,87.9,67.1,30.00,SSE,158,3.1,3.1,50,0.00,,,0.00,WUHU216HW,2013-07-13 16:59:00,
2013-07-13 12:00:00,87.9,67.1,30.00,SSE,158,3.1,3.1,50,0.00,,,0.00,WUHU216HW,2013-07-13 17:00:00,
2013-07-13 12:05:00,87.9,67.1,30.00,SSE,158,3.1,3.1,50,0.00,,,0.00,WUHU216HW,2013-07-13 17:05:00,
2013-07-13 12:29:00,88.8,67.3,29.99,SE,135,1.8,1.8,49,0.00,,,0.00,WUHU216HW,2013-07-13 17:29:00,
2013-07-13 12:30:00,88.8,67.3,29.99,SE,135,1.8,1.8,49,0.00,,,0.00,WUHU216HW,2013-07-13 17:30:00,
2013-07-13 12:35:00,88.8,67.3,29.99,SE,135,1.8,1.8,49,0.00,,,0.00,WUHU216HW,2013-07-13 17:35:00,
2013-07-13 13:00:00,89.7,68.2,29.99,SE,135,6.0,6.0,49,0.00,,,0.00,WUHU216HW,2013-07-13 18:00:00,
2013-07-13 13:05:00,89.7,68.2,29.99,SE,135,6.0,6.0,49,0.00,,,0.00,WUHU216HW,2013-07-13 18:05:00,
2013-07-13 13:30:00,91.3,68.4,29.98,North,0,4.3,4.3,47,0.00,,,0.00,WUHU216HW,2013-07-13 18:30:00,
2013-07-13 13:35:00,91.3,68.4,29.98,North,0,4.3,4.3,47,0.00,,,0.00,WUHU216HW,2013-07-13 18:35:00,
2013-07-13 14:00:00,92.9,69.2,29.97,ESE,113,1.6,1.6,46,0.00,,,0.00,WUHU216HW,2013-07-13 19:00:00,